Time;durP1;ratioP1;P1;durP2;ratioP2;P2;SDS_P1;SDS_P2;PMS_P1;PMS_P2;Temp;Humidity;BMP_temperature;BMP_pressure;BME280_temperature;BME280_humidity;BME280_pressure;Samples;Min_cycle;Max_cycle;Signal;HPM_P1;HPM_P2
2022/01/15 06:24:29;;;;;;;2.33;2.13;;;-4.20;99.90;;;;;;6093138;22;20160;-68
2022/01/15 06:26:56;;;;;;;2.22;2.03;;;-4.20;99.90;;;;;;5073668;28;20220;-68
2022/01/15 06:29:23;;;;;;;2.42;2.30;;;-4.20;99.90;;;;;;5073611;28;20215;-68
2022/01/15 06:31:52;;;;;;;1.92;1.83;;;-4.10;99.90;;;;;;5073761;28;20214;-68
2022/01/15 06:34:19;;;;;;;1.73;1.73;;;-4.10;99.90;;;;;;5073591;28;20224;-68
2022/01/15 06:36:46;;;;;;;1.73;1.73;;;-4.10;99.90;;;;;;5073827;28;20200;-68
2022/01/15 06:39:13;;;;;;;2.05;1.95;;;-4.10;99.90;;;;;;5097758;22;20322;-71
2022/01/15 06:41:41;;;;;;;2.05;1.95;;;-4.10;99.90;;;;;;5073746;28;20234;-71
2022/01/15 06:44:08;;;;;;;1.83;1.73;;;-4.10;99.90;;;;;;5073886;28;20236;-71
2022/01/15 06:46:35;;;;;;;1.52;1.50;;;-4.10;99.90;;;;;;5073577;28;20259;-71
2022/01/15 06:49:02;;;;;;;1.90;1.80;;;-4.10;99.90;;;;;;5072897;28;20216;-71
2022/01/15 06:51:29;;;;;;;1.40;1.40;;;-4.10;99.90;;;;;;5073554;28;20238;-71
2022/01/15 06:53:55;;;;;;;1.88;1.77;;;-4.10;99.90;;;;;;5073503;28;20228;-71
2022/01/15 06:56:22;;;;;;;1.27;1.27;;;-4.20;99.90;;;;;;5073419;28;20231;-71
2022/01/15 06:58:50;;;;;;;1.48;1.48;;;-4.10;99.90;;;;;;5073494;28;20278;-71
2022/01/15 07:01:17;;;;;;;1.73;1.73;;;-4.10;99.90;;;;;;5073398;28;20242;-71
2022/01/15 07:03:44;;;;;;;1.90;1.80;;;-4.10;99.90;;;;;;5073387;28;20246;-71
2022/01/15 07:06:11;;;;;;;2.45;2.35;;;-4.10;99.90;;;;;;5073394;28;20215;-71
2022/01/15 07:08:38;;;;;;;2.03;1.92;;;-4.10;99.90;;;;;;5073017;28;20311;-71
2022/01/15 07:11:05;;;;;;;2.38;2.28;;;-4.10;99.90;;;;;;5073486;28;20286;-71
2022/01/15 07:13:33;;;;;;;2.45;2.25;;;-4.00;99.90;;;;;;5073363;28;20231;-70
2022/01/15 07:16:01;;;;;;;2.55;2.45;;;-4.00;99.90;;;;;;5073357;28;20227;-70
2022/01/15 07:18:28;;;;;;;2.88;2.63;;;-4.00;99.90;;;;;;5072943;28;20582;-70
2022/01/15 07:20:55;;;;;;;2.45;2.35;;;-4.00;99.90;;;;;;5073887;28;20201;-71
2022/01/15 07:23:22;;;;;;;2.33;2.22;;;-4.00;99.90;;;;;;5073200;28;20210;-71
2022/01/15 07:25:49;;;;;;;2.28;2.17;;;-3.90;99.90;;;;;;5073218;28;20206;-71
2022/01/15 07:28:18;;;;;;;2.10;2.00;;;-3.90;99.90;;;;;;5073013;28;20227;-71
2022/01/15 07:30:45;;;;;;;2.30;2.20;;;-3.90;99.90;;;;;;5072985;28;20222;-71
2022/01/15 07:33:14;;;;;;;2.33;2.22;;;-3.90;99.90;;;;;;5073024;28;20207;-70
2022/01/15 07:35:43;;;;;;;2.03;1.98;;;-3.90;99.90;;;;;;5072777;28;20805;-71
2022/01/15 07:38:12;;;;;;;2.30;2.20;;;-3.80;99.90;;;;;;5072624;28;20292;-71
2022/01/15 07:40:39;;;;;;;2.40;2.30;;;-3.80;99.90;;;;;;5074036;28;20638;-70
2022/01/15 07:43:06;;;;;;;2.50;2.33;;;-3.80;99.90;;;;;;5074228;28;20204;-70
2022/01/15 07:45:34;;;;;;;2.10;2.00;;;-3.80;99.90;;;;;;5074624;28;20745;-70
2022/01/15 07:48:01;;;;;;;1.95;1.90;;;-3.70;99.90;;;;;;5074320;28;20261;-71
2022/01/15 07:50:30;;;;;;;1.75;1.73;;;-3.70;99.90;;;;;;5074751;28;20257;-71
2022/01/15 07:52:58;;;;;;;2.13;2.03;;;-3.60;99.90;;;;;;5073903;28;20203;-71
2022/01/15 07:55:27;;;;;;;2.22;2.13;;;-3.10;99.90;;;;;;5075245;28;20196;-72
2022/01/15 07:57:55;;;;;;;2.28;2.10;;;-2.50;99.90;;;;;;5076109;28;20293;-71
2022/01/15 08:00:23;;;;;;;2.22;2.03;;;-1.60;99.90;;;;;;5078557;28;20196;-70
2022/01/15 08:02:51;;;;;;;1.98;1.88;;;-0.40;99.90;;;;;;5079952;28;20196;-69
2022/01/15 08:05:18;;;;;;;2.30;2.10;;;0.90;99.90;;;;;;5079132;28;20278;-69
2022/01/15 08:07:46;;;;;;;3.65;3.35;;;2.40;99.90;;;;;;5079079;28;20590;-69
2022/01/15 08:10:15;;;;;;;2.90;2.63;;;3.70;99.90;;;;;;5079568;28;20208;-68
2022/01/15 08:12:46;;;;;;;3.17;2.97;;;4.40;99.90;;;;;;5080183;28;20234;-68
2022/01/15 08:15:14;;;;;;;2.67;2.42;;;4.70;99.90;;;;;;5080558;28;20203;-68
2022/01/15 08:17:41;;;;;;;3.65;3.33;;;4.90;99.90;;;;;;5080160;28;20227;-68
2022/01/15 08:20:09;;;;;;;8.27;4.80;;;4.80;99.90;;;;;;5075976;28;20646;-69
2022/01/15 08:22:36;;;;;;;5.05;3.92;;;4.90;99.90;;;;;;5076240;28;20291;-69
2022/01/15 08:25:05;;;;;;;4.68;4.15;;;5.30;99.90;;;;;;5075872;28;20758;-68
2022/01/15 08:27:32;;;;;;;9.23;5.28;;;5.40;99.90;;;;;;5076257;28;20674;-68
2022/01/15 08:29:59;;;;;;;12.55;6.43;;;5.20;99.90;;;;;;5075817;28;20200;-68
2022/01/15 08:32:26;;;;;;;9.52;6.38;;;4.70;98.80;;;;;;5076012;28;20207;-68
2022/01/15 08:34:53;;;;;;;10.18;5.90;;;4.10;99.90;;;;;;5075965;28;20210;-68
2022/01/15 08:37:19;;;;;;;10.25;5.53;;;3.50;99.90;;;;;;5075372;28;20631;-68
2022/01/15 08:39:46;;;;;;;12.35;6.22;;;3.10;99.90;;;;;;5075997;28;20610;-68
2022/01/15 08:42:15;;;;;;;11.23;5.15;;;2.70;99.90;;;;;;5075460;28;20295;-68
2022/01/15 08:44:44;;;;;;;8.73;5.50;;;2.40;99.90;;;;;;5075698;28;20227;-68
2022/01/15 08:47:11;;;;;;;8.35;5.38;;;2.20;99.90;;;;;;5075631;28;20234;-68
2022/01/15 08:49:39;;;;;;;9.18;5.32;;;2.00;99.90;;;;;;5075114;28;20789;-68
2022/01/15 08:52:07;;;;;;;10.10;5.97;;;1.80;99.90;;;;;;5075585;28;20200;-69
2022/01/15 08:54:34;;;;;;;12.10;6.82;;;1.60;99.90;;;;;;5075237;28;20240;-69
2022/01/15 08:57:01;;;;;;;11.18;5.35;;;1.50;99.90;;;;;;5075467;28;20196;-69
2022/01/15 08:59:29;;;;;;;7.70;4.70;;;1.40;99.90;;;;;;5075075;28;20226;-69
2022/01/15 09:01:57;;;;;;;9.27;4.93;;;1.30;99.90;;;;;;5075231;28;20566;-69
2022/01/15 09:04:24;;;;;;;8.85;4.93;;;1.20;99.90;;;;;;5075521;28;20204;-69
2022/01/15 09:06:51;;;;;;;6.38;4.30;;;1.20;99.90;;;;;;5075310;28;20241;-69
2022/01/15 09:09:19;;;;;;;5.57;4.05;;;1.20;99.90;;;;;;5075362;28;20396;-69
2022/01/15 09:11:46;;;;;;;4.68;4.05;;;1.10;99.90;;;;;;5074773;28;20210;-69
2022/01/15 09:14:13;;;;;;;6.80;4.53;;;1.10;99.90;;;;;;5075208;28;20204;-68
2022/01/15 09:16:42;;;;;;;5.50;4.00;;;1.10;99.90;;;;;;5075139;28;20204;-67
2022/01/15 09:19:10;;;;;;;7.10;4.72;;;1.00;99.90;;;;;;5074714;28;20230;-68
2022/01/15 09:21:37;;;;;;;6.75;4.30;;;1.00;99.90;;;;;;5074833;28;20202;-68
2022/01/15 09:24:05;;;;;;;4.50;4.10;;;1.00;99.90;;;;;;5074960;28;20291;-68
2022/01/15 09:32:01;;;;;;;9.88;5.25;;;1.00;99.90;;;;;;5074497;28;20313;-68
2022/01/15 09:34:28;;;;;;;6.15;4.85;;;1.10;99.90;;;;;;5074511;28;20261;-68
2022/01/15 09:36:56;;;;;;;8.93;5.43;;;1.10;99.90;;;;;;5074613;28;20228;-70
2022/01/15 09:39:23;;;;;;;8.23;6.13;;;1.20;99.90;;;;;;5074420;28;20258;-69
2022/01/15 09:41:54;;;;;;;9.60;6.10;;;1.20;99.90;;;;;;5074764;28;20204;-70
2022/01/15 09:44:22;;;;;;;8.10;5.10;;;1.30;99.90;;;;;;5074667;28;20238;-69
2022/01/15 09:46:49;;;;;;;8.10;6.07;;;1.40;99.90;;;;;;5074225;28;20239;-69
2022/01/15 09:49:20;;;;;;;9.02;5.75;;;1.50;99.90;;;;;;5074504;28;20586;-69
2022/01/15 09:51:48;;;;;;;8.15;5.95;;;1.50;99.90;;;;;;5075650;28;20198;-70
2022/01/15 09:54:17;;;;;;;7.22;5.32;;;1.70;99.90;;;;;;5074334;28;20207;-69
2022/01/15 09:56:46;;;;;;;6.28;5.03;;;1.80;99.90;;;;;;5074814;28;20184;-68
2022/01/15 09:59:14;;;;;;;6.70;4.85;;;1.90;99.90;;;;;;5074320;28;20267;-68
2022/01/15 10:01:41;;;;;;;5.18;4.30;;;2.10;99.90;;;;;;5074756;28;20278;-70
2022/01/15 10:04:08;;;;;;;5.07;4.50;;;2.10;99.90;;;;;;5074469;28;20200;-70
2022/01/15 10:06:36;;;;;;;4.57;4.18;;;2.30;99.90;;;;;;5074090;28;20645;-71
2022/01/15 10:09:05;;;;;;;7.25;4.78;;;2.40;99.90;;;;;;5074122;28;20224;-71
2022/01/15 10:11:42;;;;;;;4.70;4.00;;;2.50;99.90;;;;;;5073958;28;20290;-71
2022/01/15 10:14:24;;;;;;;4.13;3.72;;;2.70;99.90;;;;;;5074110;28;20242;-71
2022/01/15 10:16:51;;;;;;;4.07;3.78;;;2.90;99.90;;;;;;5074242;28;20271;-71
2022/01/15 10:19:25;;;;;;;3.50;3.20;;;3.10;99.90;;;;;;5074069;28;20232;-69
2022/01/15 10:22:10;;;;;;;3.90;3.60;;;3.20;99.90;;;;;;5073803;28;20184;-70
2022/01/15 10:24:37;;;;;;;3.45;3.15;;;3.30;99.90;;;;;;5073503;28;20287;-71
2022/01/15 10:27:26;;;;;;;3.35;3.05;;;3.40;99.90;;;;;;5074075;28;20296;-71
2022/01/15 10:29:57;;;;;;;4.00;3.60;;;3.50;99.90;;;;;;5074048;28;20185;-70
2022/01/15 10:32:24;;;;;;;3.42;3.22;;;3.60;99.90;;;;;;5073710;28;20657;-72
2022/01/15 10:34:52;;;;;;;3.97;3.70;;;3.60;99.90;;;;;;5073927;28;20564;-71
2022/01/15 10:37:22;;;;;;;4.13;3.72;;;3.70;99.90;;;;;;5073612;28;20294;-71
2022/01/15 10:39:58;;;;;;;3.30;3.03;;;3.70;99.90;;;;;;5073902;28;20249;-70
2022/01/15 10:42:26;;;;;;;3.92;3.63;;;3.80;99.90;;;;;;5073893;28;20210;-72
2022/01/15 10:44:53;;;;;;;4.25;3.85;;;3.80;99.90;;;;;;5073870;28;20271;-72
2022/01/15 10:47:22;;;;;;;3.60;3.40;;;3.90;99.90;;;;;;5073633;28;20313;-71
2022/01/15 10:49:49;;;;;;;3.95;3.55;;;3.90;99.90;;;;;;5073956;28;20286;-71
2022/01/15 10:52:19;;;;;;;3.95;3.42;;;3.90;99.90;;;;;;5073550;28;20567;-72
2022/01/15 10:55:00;;;;;;;4.00;3.63;;;3.90;99.90;;;;;;5073674;28;20288;-71
2022/01/15 10:57:33;;;;;;;3.78;3.45;;;3.90;99.90;;;;;;5073492;28;20266;-71
2022/01/15 11:00:19;;;;;;;3.95;3.58;;;3.90;99.90;;;;;;5073936;28;20198;-71
2022/01/15 11:02:48;;;;;;;4.07;3.67;;;4.00;99.90;;;;;;5073876;28;20192;-71
2022/01/15 11:05:29;;;;;;;3.95;3.65;;;4.00;99.90;;;;;;5073660;28;20263;-71
2022/01/15 11:08:15;;;;;;;3.53;3.22;;;4.00;99.90;;;;;;5073708;28;20322;-71
2022/01/15 11:10:50;;;;;;;3.72;3.42;;;4.00;99.90;;;;;;5073873;28;20279;-71
2022/01/15 11:13:19;;;;;;;3.30;3.10;;;4.00;99.90;;;;;;5074540;28;20515;-71
2022/01/15 11:15:48;;;;;;;3.30;3.10;;;4.00;99.90;;;;;;5073580;28;20283;-71
2022/01/15 11:18:19;;;;;;;3.17;2.97;;;4.00;99.90;;;;;;5073526;28;20302;-71
2022/01/15 11:20:49;;;;;;;3.28;3.08;;;4.00;99.90;;;;;;5073533;28;20279;-71
2022/01/15 11:23:18;;;;;;;3.53;3.22;;;4.00;99.90;;;;;;5074744;28;20279;-72
2022/01/15 11:25:47;;;;;;;3.55;3.33;;;4.00;99.90;;;;;;5073482;28;20295;-71
2022/01/15 11:28:14;;;;;;;3.08;2.88;;;4.00;99.90;;;;;;5073456;28;20254;-71
2022/01/15 11:30:43;;;;;;;3.15;2.95;;;4.00;99.90;;;;;;5073775;28;20230;-72
2022/01/15 11:33:11;;;;;;;3.50;3.20;;;4.10;99.90;;;;;;5073269;28;20311;-73
2022/01/15 11:35:41;;;;;;;3.00;2.80;;;4.00;99.90;;;;;;5076640;28;20651;-73
2022/01/15 11:38:25;;;;;;;3.45;3.22;;;4.00;99.90;;;;;;5077060;28;20223;-73
2022/01/15 11:40:54;;;;;;;2.95;2.75;;;4.10;99.90;;;;;;5076766;28;20200;-72
2022/01/15 11:43:41;;;;;;;3.20;3.00;;;4.00;99.90;;;;;;5077230;28;20637;-74
2022/01/15 11:46:26;;;;;;;3.58;3.22;;;4.10;99.90;;;;;;5077373;28;20184;-74
2022/01/15 11:49:13;;;;;;;3.60;3.30;;;4.10;99.90;;;;;;5077312;28;20310;-74
2022/01/15 11:51:41;;;;;;;2.65;2.55;;;4.10;99.90;;;;;;5076999;28;20196;-74
2022/01/15 11:54:12;;;;;;;3.10;2.90;;;4.10;99.90;;;;;;5077214;28;20250;-75
2022/01/15 11:56:42;;;;;;;3.15;2.85;;;4.10;99.90;;;;;;5078126;28;20276;-75
2022/01/15 11:59:47;;;;;;;3.88;3.45;;;4.10;99.90;;;;;;5077206;28;20311;-76
2022/01/15 12:02:27;;;;;;;3.38;3.17;;;4.20;99.90;;;;;;5061573;28;20211;-75
2022/01/15 12:04:54;;;;;;;3.92;3.63;;;4.20;99.90;;;;;;5076759;28;20674;-75
2022/01/15 12:07:23;;;;;;;2.63;2.53;;;4.20;99.90;;;;;;5076680;28;20210;-75
2022/01/15 12:09:52;;;;;;;3.00;2.80;;;4.10;99.90;;;;;;5076765;28;20246;-75
2022/01/15 12:12:49;;;;;;;3.40;2.97;;;4.20;99.90;;;;;;5077265;28;20211;-74
2022/01/15 12:15:19;;;;;;;3.10;2.90;;;4.20;99.90;;;;;;5076765;28;20190;-76
2022/01/15 12:17:48;;;;;;;3.33;2.75;;;4.20;99.90;;;;;;5076824;28;20224;-76
2022/01/15 12:20:37;;;;;;;3.60;3.30;;;4.10;99.90;;;;;;5076964;28;20291;-75
2022/01/15 12:23:25;;;;;;;3.33;2.92;;;4.10;99.90;;;;;;5076044;28;20627;-75
2022/01/15 12:25:54;;;;;;;2.83;2.63;;;4.10;99.90;;;;;;5076124;28;20210;-75
2022/01/15 12:28:23;;;;;;;2.25;2.15;;;4.10;99.90;;;;;;5076182;28;20315;-76
2022/01/15 12:30:51;;;;;;;2.63;2.50;;;4.10;99.90;;;;;;5075942;28;20528;-75
2022/01/15 12:33:20;;;;;;;2.85;2.65;;;4.10;99.90;;;;;;5076152;28;20203;-75
2022/01/15 12:35:50;;;;;;;2.75;2.55;;;4.10;99.90;;;;;;5076025;28;20206;-75
2022/01/15 12:38:25;;;;;;;2.53;2.42;;;4.10;99.90;;;;;;5075809;28;20219;-75
2022/01/15 12:40:55;;;;;;;2.08;1.98;;;4.10;99.90;;;;;;5075801;28;20282;-76
2022/01/15 12:43:25;;;;;;;2.70;2.50;;;4.00;99.90;;;;;;5075968;28;20294;-74
2022/01/15 12:45:55;;;;;;;2.58;2.47;;;4.00;99.90;;;;;;5074981;28;20262;-74
2022/01/15 12:48:25;;;;;;;2.22;2.13;;;4.00;99.90;;;;;;5075614;28;20254;-74
2022/01/15 12:50:55;;;;;;;2.13;2.03;;;3.90;99.90;;;;;;5075379;28;20203;-74
2022/01/15 12:53:24;;;;;;;1.95;1.85;;;3.90;99.90;;;;;;5075803;28;20200;-76
2022/01/15 12:55:51;;;;;;;2.50;2.40;;;3.90;99.90;;;;;;5074832;28;20674;-74
2022/01/15 12:58:20;;;;;;;2.20;2.10;;;3.90;99.90;;;;;;5073101;28;20797;-74
2022/01/15 13:00:48;;;;;;;1.98;1.88;;;3.80;99.90;;;;;;5074659;28;20200;-74
2022/01/15 13:03:16;;;;;;;1.90;1.80;;;3.80;99.90;;;;;;5075732;28;20288;-74
2022/01/15 13:05:45;;;;;;;1.70;1.70;;;3.80;99.90;;;;;;5075423;28;20206;-74
2022/01/15 13:08:14;;;;;;;1.83;1.73;;;3.70;99.90;;;;;;5074954;28;20697;-75
2022/01/15 13:10:49;;;;;;;2.08;1.98;;;3.70;99.90;;;;;;5075295;28;20666;-75
2022/01/15 13:13:21;;;;;;;2.42;2.33;;;3.70;99.90;;;;;;5075445;28;20188;-75
2022/01/15 14:02:29;;;;;;;6.13;3.42;;;3.00;99.90;;;;;;5980056;22;20885;-71
2022/01/15 14:05:13;;;;;;;3.65;2.90;;;2.90;99.90;;;;;;5073906;28;20299;-71
2022/01/15 14:07:40;;;;;;;5.03;3.13;;;2.80;99.90;;;;;;5073987;28;20601;-70
2022/01/15 14:10:11;;;;;;;5.18;3.28;;;2.80;99.90;;;;;;5073874;28;20322;-70
2022/01/15 14:12:38;;;;;;;4.85;3.03;;;2.70;99.90;;;;;;5074008;28;20224;-71
2022/01/15 14:15:13;;;;;;;5.50;2.80;;;2.70;99.90;;;;;;5074115;28;20287;-71
2022/01/15 14:17:45;;;;;;;5.65;3.22;;;2.60;99.90;;;;;;5074785;28;20237;-71
2022/01/15 14:20:39;;;;;;;7.28;3.17;;;2.60;99.90;;;;;;5073851;28;20286;-71
2022/01/15 14:23:07;;;;;;;3.97;2.67;;;2.50;99.90;;;;;;5073441;28;20228;-71
2022/01/15 14:25:37;;;;;;;4.15;2.58;;;2.50;99.90;;;;;;5073856;28;20200;-71
2022/01/15 14:28:07;;;;;;;3.90;2.45;;;2.50;99.90;;;;;;5073595;28;20286;-70
2022/01/15 14:30:34;;;;;;;3.95;3.05;;;2.40;99.90;;;;;;5073832;28;20232;-70
2022/01/15 14:33:03;;;;;;;4.30;2.80;;;2.40;99.90;;;;;;5074078;28;20302;-70
2022/01/15 14:35:32;;;;;;;3.95;2.72;;;2.40;99.90;;;;;;5073952;28;20253;-70
2022/01/15 14:37:59;;;;;;;3.28;2.17;;;2.30;99.90;;;;;;5073398;28;20290;-71
2022/01/15 14:40:26;;;;;;;2.72;2.38;;;2.30;99.90;;;;;;5073641;28;20231;-71
2022/01/15 14:42:54;;;;;;;3.58;2.35;;;2.30;99.90;;;;;;5073371;28;20310;-71
2022/01/15 14:45:22;;;;;;;2.95;2.25;;;2.20;99.90;;;;;;5074196;28;20196;-71
2022/01/15 14:47:51;;;;;;;4.60;2.70;;;2.20;99.90;;;;;;5073908;28;20200;-72
2022/01/15 14:50:20;;;;;;;4.85;2.60;;;2.10;99.90;;;;;;5073865;28;20219;-71
2022/01/15 14:52:47;;;;;;;3.40;2.47;;;2.10;99.90;;;;;;5073634;28;20311;-72
2022/01/15 14:55:15;;;;;;;1.90;1.73;;;2.00;99.90;;;;;;5073754;28;20195;-71
2022/01/15 14:57:42;;;;;;;1.85;1.73;;;2.00;99.90;;;;;;5073442;28;20630;-71
2022/01/15 15:00:11;;;;;;;2.05;1.90;;;2.00;99.90;;;;;;5073466;28;20679;-71
2022/01/15 15:02:38;;;;;;;1.80;1.70;;;1.90;99.90;;;;;;5073257;28;20302;-71
2022/01/15 15:05:06;;;;;;;2.28;2.08;;;1.90;99.90;;;;;;5073406;28;20294;-71
2022/01/15 15:07:34;;;;;;;2.30;2.08;;;1.90;99.90;;;;;;5073637;28;20291;-71
2022/01/15 15:10:02;;;;;;;1.90;1.70;;;1.80;99.90;;;;;;5072997;28;20306;-70
2022/01/15 15:12:37;;;;;;;1.40;1.40;;;1.80;99.90;;;;;;5073658;28;20216;-71
2022/01/15 15:15:05;;;;;;;1.17;1.17;;;1.80;99.90;;;;;;5073575;28;20203;-71
2022/01/15 15:17:32;;;;;;;1.58;1.50;;;1.80;99.90;;;;;;5073626;28;20195;-71
2022/01/15 15:19:59;;;;;;;1.70;1.58;;;1.70;99.90;;;;;;5073351;28;20196;-70
2022/01/15 15:22:26;;;;;;;1.60;1.40;;;1.70;99.90;;;;;;5073446;28;20323;-71
2022/01/15 15:24:54;;;;;;;1.30;1.30;;;1.60;99.90;;;;;;5073152;28;20298;-71
2022/01/15 15:27:21;;;;;;;1.90;1.80;;;1.60;99.90;;;;;;5073461;28;20618;-71
2022/01/15 15:29:49;;;;;;;1.40;1.40;;;1.60;99.90;;;;;;5073436;28;20291;-70
2022/01/15 15:32:16;;;;;;;1.33;1.33;;;1.50;99.90;;;;;;5073195;28;20226;-71
2022/01/15 15:34:42;;;;;;;1.17;1.17;;;1.50;99.90;;;;;;5073480;28;20271;-71
2022/01/15 15:37:09;;;;;;;1.23;1.23;;;1.50;99.90;;;;;;5073339;28;20287;-70
2022/01/15 15:39:37;;;;;;;1.20;1.20;;;1.40;99.90;;;;;;5073355;28;20287;-70
2022/01/15 15:42:06;;;;;;;1.20;1.20;;;1.40;99.90;;;;;;5073466;28;20196;-71
2022/01/15 15:44:33;;;;;;;1.35;1.27;;;1.40;99.90;;;;;;5073510;28;20271;-70
2022/01/15 15:47:00;;;;;;;1.38;1.38;;;1.30;99.90;;;;;;5073199;28;20295;-70
2022/01/15 15:49:27;;;;;;;1.05;1.05;;;1.30;99.90;;;;;;5073129;28;20311;-69
2022/01/15 15:51:54;;;;;;;1.20;1.20;;;1.20;99.90;;;;;;5072874;28;20203;-69
2022/01/15 15:54:21;;;;;;;1.20;1.20;;;1.20;99.90;;;;;;5073119;28;20287;-69
2022/01/15 15:56:48;;;;;;;1.40;1.30;;;1.10;99.90;;;;;;5073756;28;20231;-69
2022/01/15 15:59:16;;;;;;;1.05;1.05;;;1.10;99.90;;;;;;5073260;28;20283;-68
2022/01/15 16:01:43;;;;;;;1.10;1.10;;;1.00;99.90;;;;;;5073588;28;20286;-70
2022/01/15 16:04:10;;;;;;;1.13;1.13;;;1.00;99.90;;;;;;5073163;28;20232;-68
2022/01/15 16:06:37;;;;;;;1.42;1.33;;;0.90;99.90;;;;;;5072601;28;20578;-68
2022/01/15 16:09:04;;;;;;;1.02;1.02;;;0.90;99.90;;;;;;5072847;28;20769;-70
2022/01/15 16:11:32;;;;;;;0.90;0.90;;;0.80;99.90;;;;;;5073001;28;20291;-69
2022/01/15 16:13:59;;;;;;;1.30;1.30;;;0.80;99.90;;;;;;5072756;28;20307;-69
2022/01/15 16:16:27;;;;;;;1.20;1.20;;;0.70;99.90;;;;;;5073386;28;20188;-70
2022/01/15 16:18:54;;;;;;;1.00;1.00;;;0.70;99.90;;;;;;5073058;28;20271;-70
2022/01/15 16:21:22;;;;;;;1.00;1.00;;;0.70;99.90;;;;;;5074325;28;20271;-69
2022/01/15 16:23:49;;;;;;;1.17;1.17;;;0.70;99.90;;;;;;5077250;28;20227;-69
2022/01/15 16:26:16;;;;;;;1.00;1.00;;;0.60;99.90;;;;;;5077282;28;20282;-70
2022/01/15 16:28:43;;;;;;;0.82;0.82;;;0.60;99.90;;;;;;5076483;28;20267;-69
2022/01/15 16:31:10;;;;;;;0.80;0.80;;;0.60;99.90;;;;;;5076451;28;20290;-69
2022/01/15 16:33:38;;;;;;;1.00;1.00;;;0.60;99.90;;;;;;5075881;28;20650;-70
2022/01/15 16:36:06;;;;;;;1.25;1.25;;;0.60;99.90;;;;;;5076140;28;20278;-69
2022/01/15 16:38:33;;;;;;;1.08;1.08;;;0.50;99.90;;;;;;5076406;28;20763;-69
2022/01/15 16:41:01;;;;;;;1.35;1.35;;;0.50;99.90;;;;;;5075996;28;20253;-68
2022/01/15 16:43:28;;;;;;;1.20;1.20;;;0.50;99.90;;;;;;5076156;28;20314;-68
2022/01/15 16:45:55;;;;;;;1.20;1.20;;;0.40;99.90;;;;;;5076337;28;20303;-69
2022/01/15 16:48:22;;;;;;;1.23;1.23;;;0.40;99.90;;;;;;5076253;28;20291;-69
2022/01/15 16:50:50;;;;;;;1.10;1.10;;;0.40;99.90;;;;;;5076956;28;20299;-68
2022/01/15 16:53:17;;;;;;;1.48;1.38;;;0.30;99.90;;;;;;5076443;28;20314;-69
2022/01/15 16:55:44;;;;;;;1.50;1.50;;;0.30;99.90;;;;;;5076063;28;20192;-68
2022/01/15 16:58:11;;;;;;;1.55;1.42;;;0.20;99.90;;;;;;5075674;28;20236;-69
2022/01/15 17:00:38;;;;;;;1.50;1.40;;;0.20;99.90;;;;;;5075900;28;20599;-69
2022/01/15 17:03:05;;;;;;;1.30;1.30;;;0.20;99.90;;;;;;5075584;28;20306;-69
2022/01/15 17:05:33;;;;;;;1.60;1.60;;;0.10;99.90;;;;;;5075391;28;20294;-69
2022/01/15 17:08:01;;;;;;;1.90;1.70;;;0.10;99.90;;;;;;5075540;28;20290;-69
2022/01/15 17:10:28;;;;;;;1.35;1.35;;;0.00;99.90;;;;;;5076379;28;20251;-69
2022/01/15 17:12:55;;;;;;;1.77;1.67;;;0.00;99.90;;;;;;5075827;28;20279;-69
2022/01/15 17:15:22;;;;;;;2.33;1.67;;;0.00;99.90;;;;;;5075736;28;20711;-69
2022/01/15 17:17:49;;;;;;;2.22;2.13;;;-0.10;99.90;;;;;;5076699;28;20287;-68
2022/01/15 17:20:16;;;;;;;3.25;2.30;;;-0.10;99.90;;;;;;5076651;28;20291;-68
2022/01/15 17:22:43;;;;;;;2.15;1.90;;;-0.10;99.90;;;;;;5075977;28;20224;-69
2022/01/15 17:25:13;;;;;;;2.67;2.47;;;-0.20;99.90;;;;;;5076041;28;20203;-68
2022/01/15 17:27:40;;;;;;;2.67;2.20;;;-0.20;99.90;;;;;;5075510;28;20283;-69
2022/01/15 17:30:09;;;;;;;2.10;1.90;;;-0.20;99.90;;;;;;5075055;28;20248;-69
2022/01/15 17:32:36;;;;;;;2.20;2.00;;;-0.20;99.90;;;;;;5074780;28;20306;-69
2022/01/15 17:35:07;;;;;;;2.00;1.90;;;-0.20;99.90;;;;;;5074959;28;20762;-69
2022/01/15 17:37:34;;;;;;;1.70;1.63;;;-0.30;99.90;;;;;;5075308;28;20191;-69
2022/01/15 17:40:01;;;;;;;2.03;1.80;;;-0.20;99.90;;;;;;5075312;28;20283;-68
2022/01/15 17:42:29;;;;;;;2.45;2.15;;;-0.30;99.90;;;;;;5074892;28;20316;-69
2022/01/15 17:44:56;;;;;;;2.63;2.20;;;-0.30;99.90;;;;;;5074914;28;20223;-68
2022/01/15 17:47:23;;;;;;;1.80;1.70;;;-0.40;99.90;;;;;;5074972;28;20282;-69
2022/01/15 17:49:51;;;;;;;2.42;2.28;;;-0.40;99.90;;;;;;5074814;28;20314;-67
2022/01/15 17:52:18;;;;;;;2.00;1.90;;;-0.40;99.90;;;;;;5074865;28;20596;-67
2022/01/15 17:54:45;;;;;;;2.60;2.40;;;-0.30;99.90;;;;;;5074560;28;20606;-67
2022/01/15 17:57:12;;;;;;;2.60;2.40;;;-0.40;99.90;;;;;;5074708;28;20231;-67
2022/01/15 17:59:40;;;;;;;3.00;2.58;;;-0.30;99.90;;;;;;5074641;28;20196;-67
2022/01/15 18:02:07;;;;;;;3.20;2.45;;;-0.30;99.90;;;;;;5074548;28;20295;-68
2022/01/15 18:04:34;;;;;;;2.80;2.45;;;-0.30;99.90;;;;;;5074264;28;20299;-68
2022/01/15 18:07:02;;;;;;;3.05;2.45;;;-0.40;99.90;;;;;;5074449;28;20571;-68
2022/01/15 18:09:32;;;;;;;4.03;3.00;;;-0.40;99.90;;;;;;5075955;28;20219;-68
2022/01/15 18:12:00;;;;;;;2.60;2.40;;;-0.40;99.90;;;;;;5076597;28;20524;-69
2022/01/15 18:14:28;;;;;;;2.83;2.63;;;-0.50;99.90;;;;;;5077092;28;20188;-68
2022/01/15 18:16:57;;;;;;;2.60;2.22;;;-0.50;99.90;;;;;;5076675;28;20252;-71
2022/01/15 18:19:24;;;;;;;3.08;2.78;;;-0.60;99.90;;;;;;5076244;28;20210;-72
2022/01/15 18:21:55;;;;;;;2.95;2.40;;;-0.60;99.90;;;;;;5076762;28;20204;-73
2022/01/15 18:24:22;;;;;;;2.97;2.65;;;-0.70;99.90;;;;;;5076911;28;20184;-74
2022/01/15 18:26:50;;;;;;;3.20;2.78;;;-0.70;99.90;;;;;;5077422;28;20247;-67
2022/01/15 18:29:20;;;;;;;2.75;2.55;;;-0.70;99.90;;;;;;5077723;28;20290;-68
2022/01/15 18:31:49;;;;;;;3.17;2.88;;;-0.70;99.90;;;;;;5077947;28;20204;-73
2022/01/15 18:34:18;;;;;;;3.05;2.50;;;-0.80;99.90;;;;;;5077608;28;20766;-68
2022/01/15 18:36:46;;;;;;;2.97;2.78;;;-0.80;99.90;;;;;;5077556;28;20219;-68
2022/01/15 18:39:15;;;;;;;3.00;2.80;;;-0.80;99.90;;;;;;5077581;28;20210;-68
2022/01/15 18:41:42;;;;;;;3.03;2.83;;;-0.90;99.90;;;;;;5077038;28;20200;-72
2022/01/15 18:44:11;;;;;;;3.13;2.83;;;-0.90;99.90;;;;;;5076035;28;20227;-73
2022/01/15 18:46:38;;;;;;;3.70;3.30;;;-0.90;99.90;;;;;;5077119;28;20200;-71
2022/01/15 18:49:06;;;;;;;3.10;2.80;;;-1.00;99.90;;;;;;5076965;28;20234;-71
2022/01/15 18:51:35;;;;;;;4.15;3.05;;;-1.00;99.90;;;;;;5077475;28;20659;-72
2022/01/15 18:54:03;;;;;;;3.40;3.08;;;-1.00;99.90;;;;;;5077055;28;20763;-70
2022/01/15 18:56:30;;;;;;;3.75;2.95;;;-1.00;99.90;;;;;;5076908;28;20212;-68
2022/01/15 18:58:58;;;;;;;4.03;3.58;;;-1.10;99.90;;;;;;5077834;28;20282;-68
2022/01/15 19:01:26;;;;;;;2.97;2.75;;;-1.10;99.90;;;;;;5078133;28;20200;-69
2022/01/15 19:03:53;;;;;;;3.20;2.90;;;-1.10;99.90;;;;;;5074694;28;20231;-70
2022/01/15 19:06:20;;;;;;;3.28;2.95;;;-1.10;99.90;;;;;;5073824;28;20292;-70
2022/01/15 19:08:48;;;;;;;4.93;3.17;;;-1.10;99.90;;;;;;5073669;28;20200;-70
2022/01/15 19:11:15;;;;;;;3.20;3.00;;;-1.10;99.90;;;;;;5073434;28;20224;-70
2022/01/15 19:13:42;;;;;;;3.60;2.83;;;-1.10;99.90;;;;;;5073360;28;20761;-70
2022/01/15 19:16:09;;;;;;;4.32;3.70;;;-1.10;99.90;;;;;;5073304;28;20734;-69
2022/01/15 19:18:36;;;;;;;3.22;2.72;;;-1.10;99.90;;;;;;5073245;28;20204;-69
2022/01/15 19:21:03;;;;;;;4.53;3.58;;;-1.20;99.90;;;;;;5073403;28;20290;-69
2022/01/15 19:23:32;;;;;;;4.57;3.10;;;-1.20;99.90;;;;;;5072977;28;20702;-70
2022/01/15 19:26:02;;;;;;;3.10;2.90;;;-1.20;99.90;;;;;;5073461;28;20242;-70
2022/01/15 19:28:30;;;;;;;3.38;3.05;;;-1.20;99.90;;;;;;5073309;28;20215;-69
2022/01/15 19:30:57;;;;;;;4.00;3.50;;;-1.30;99.90;;;;;;5073091;28;20645;-71
2022/01/15 19:33:23;;;;;;;3.67;3.40;;;-1.30;99.90;;;;;;5073909;28;20306;-71
2022/01/15 19:35:50;;;;;;;3.80;3.30;;;-1.30;99.90;;;;;;5073424;28;20290;-71
2022/01/15 19:38:17;;;;;;;4.65;3.17;;;-1.30;99.90;;;;;;5073381;28;20200;-71
2022/01/15 19:40:44;;;;;;;4.00;3.45;;;-1.30;99.90;;;;;;5073470;28;20291;-70
2022/01/15 19:43:14;;;;;;;4.10;3.70;;;-1.30;99.90;;;;;;5073177;28;20765;-70
2022/01/15 19:45:45;;;;;;;4.10;3.42;;;-1.40;99.90;;;;;;5073795;28;20191;-72
2022/01/15 19:48:12;;;;;;;4.53;3.53;;;-1.30;99.90;;;;;;5073794;28;20188;-71
2022/01/15 19:50:39;;;;;;;4.15;3.85;;;-1.40;99.90;;;;;;5073701;28;20227;-71
2022/01/15 19:53:06;;;;;;;3.88;3.58;;;-1.40;99.90;;;;;;5073098;28;20289;-70
2022/01/15 19:55:33;;;;;;;3.90;3.45;;;-1.40;99.90;;;;;;5074808;28;20282;-70
2022/01/15 19:58:00;;;;;;;4.30;3.90;;;-1.40;99.90;;;;;;5077518;28;20291;-70
2022/01/15 20:00:32;;;;;;;3.72;3.53;;;-1.40;99.90;;;;;;5077354;28;20196;-70
2022/01/15 20:03:00;;;;;;;4.20;3.88;;;-1.40;99.90;;;;;;5077204;28;20262;-71
2022/01/15 20:05:27;;;;;;;3.72;3.42;;;-1.50;99.90;;;;;;5077202;28;20754;-70
2022/01/15 20:07:55;;;;;;;4.03;3.72;;;-1.50;99.90;;;;;;5077012;28;20262;-70
2022/01/15 20:10:23;;;;;;;3.95;3.45;;;-1.60;99.90;;;;;;5076601;28;20661;-71
2022/01/15 20:12:51;;;;;;;3.75;3.40;;;-1.60;99.90;;;;;;5076843;28;20315;-71
2022/01/15 20:15:19;;;;;;;3.70;3.45;;;-1.60;99.90;;;;;;5076557;28;20290;-71
2022/01/15 20:17:48;;;;;;;3.97;3.65;;;-1.60;99.90;;;;;;5076370;28;20230;-71